<?xml version="1.0" encoding="utf-8"?>
<gpx xmlns:xsi="http://www.w3.org/2001/XMLSchema-instance" xmlns:xsd="http://www.w3.org/2001/XMLSchema" version="1.1" creator="Shapelink.com" xmlns="http://www.topografix.com/GPX/1/1" xmlns:gpxtpx="http://www.garmin.com/xmlschemas/TrackPointExtension/v1">
  <metadata>
    <name>Övrigt 4.16 km, 2019-07-10</name>
    <desc></desc>
    <author><name>Marian Moron</name></author> 
    <time>2019-07-10T20:59:38Z</time>
  </metadata>
  <trk>
    <name>Övrigt 4.16 km, 2019-07-10</name>
    <trkseg>
      <trkpt lat="51.229559412558" lon="4.458020468044">
        <ele>16.4</ele>
        <time>2019-07-10T20:59:38Z</time>
      </trkpt>
      <trkpt lat="51.229845151529" lon="4.457917454493">
        <ele>16.8</ele>
        <time>2019-07-10T20:59:47Z</time>
      </trkpt>
      <trkpt lat="51.229905165933" lon="4.457989957928">
        <ele>16.8</ele>
        <time>2019-07-10T21:00:04Z</time>
      </trkpt>
      <trkpt lat="51.229960486473" lon="4.458386002703">
        <ele>17.8</ele>
        <time>2019-07-10T21:00:42Z</time>
      </trkpt>
      <trkpt lat="51.230035420659" lon="4.458819933666">
        <ele>16.4</ele>
        <time>2019-07-10T21:01:11Z</time>
      </trkpt>
      <trkpt lat="51.230219068088" lon="4.458984135087">
        <ele>14.2</ele>
        <time>2019-07-10T21:01:35Z</time>
      </trkpt>
      <trkpt lat="51.23036223094" lon="4.458961168681">
        <ele>11.6</ele>
        <time>2019-07-10T21:01:45Z</time>
      </trkpt>
      <trkpt lat="51.23046449012" lon="4.459285715849">
        <ele>8.2</ele>
        <time>2019-07-10T21:02:11Z</time>
      </trkpt>
      <trkpt lat="51.230527438189" lon="4.459577070693">
        <ele>7</ele>
        <time>2019-07-10T21:02:34Z</time>
      </trkpt>
      <trkpt lat="51.230635816156" lon="4.45969802151">
        <ele>6.8</ele>
        <time>2019-07-10T21:02:48Z</time>
      </trkpt>
      <trkpt lat="51.230646042074" lon="4.459728699264">
        <ele>6.8</ele>
        <time>2019-07-10T21:02:50Z</time>
      </trkpt>
      <trkpt lat="51.230639504192" lon="4.459860211275">
        <ele>7.2</ele>
        <time>2019-07-10T21:02:55Z</time>
      </trkpt>
      <trkpt lat="51.23063715726" lon="4.460035895899">
        <ele>7.8</ele>
        <time>2019-07-10T21:03:11Z</time>
      </trkpt>
      <trkpt lat="51.230692729257" lon="4.460463037523">
        <ele>8.2</ele>
        <time>2019-07-10T21:04:02Z</time>
      </trkpt>
      <trkpt lat="51.230403134612" lon="4.460767132855">
        <ele>13</ele>
        <time>2019-07-10T21:04:37Z</time>
      </trkpt>
      <trkpt lat="51.230086047335" lon="4.460874169718">
        <ele>12.6</ele>
        <time>2019-07-10T21:05:03Z</time>
      </trkpt>
      <trkpt lat="51.229871973609" lon="4.460907362042">
        <ele>12.4</ele>
        <time>2019-07-10T21:05:19Z</time>
      </trkpt>
      <trkpt lat="51.229763595642" lon="4.460953043397">
        <ele>13.2</ele>
        <time>2019-07-10T21:05:27Z</time>
      </trkpt>
      <trkpt lat="51.229653206019" lon="4.461096206249">
        <ele>7.8</ele>
        <time>2019-07-10T21:05:44Z</time>
      </trkpt>
      <trkpt lat="51.22972688292" lon="4.461088327263">
        <ele>5.4</ele>
        <time>2019-07-10T21:05:51Z</time>
      </trkpt>
      <trkpt lat="51.229878092396" lon="4.46148671897">
        <ele>1.2</ele>
        <time>2019-07-10T21:06:18Z</time>
      </trkpt>
      <trkpt lat="51.22993978318" lon="4.461687465475">
        <ele>3</ele>
        <time>2019-07-10T21:06:35Z</time>
      </trkpt>
      <trkpt lat="51.229935173135" lon="4.461781594212">
        <ele>5.8</ele>
        <time>2019-07-10T21:06:40Z</time>
      </trkpt>
      <trkpt lat="51.229930395452" lon="4.461835908924">
        <ele>6.8</ele>
        <time>2019-07-10T21:06:43Z</time>
      </trkpt>
      <trkpt lat="51.230003317982" lon="4.461969851686">
        <ele>5.6</ele>
        <time>2019-07-10T21:06:55Z</time>
      </trkpt>
      <trkpt lat="51.230050759536" lon="4.462119636239">
        <ele>6.6</ele>
        <time>2019-07-10T21:07:10Z</time>
      </trkpt>
      <trkpt lat="51.230121838048" lon="4.462484500346">
        <ele>10.8</ele>
        <time>2019-07-10T21:07:29Z</time>
      </trkpt>
      <trkpt lat="51.230162490263" lon="4.462602936593">
        <ele>11.6</ele>
        <time>2019-07-10T21:07:36Z</time>
      </trkpt>
      <trkpt lat="51.230243794693" lon="4.46285296867">
        <ele>11.4</ele>
        <time>2019-07-10T21:07:51Z</time>
      </trkpt>
      <trkpt lat="51.23025578081" lon="4.462881970044">
        <ele>11.4</ele>
        <time>2019-07-10T21:07:53Z</time>
      </trkpt>
      <trkpt lat="51.230253769154" lon="4.462959251162">
        <ele>13.8</ele>
        <time>2019-07-10T21:07:58Z</time>
      </trkpt>
      <trkpt lat="51.230359548732" lon="4.463319672862">
        <ele>13</ele>
        <time>2019-07-10T21:08:17Z</time>
      </trkpt>
      <trkpt lat="51.230393495427" lon="4.463406760803">
        <ele>13.8</ele>
        <time>2019-07-10T21:08:29Z</time>
      </trkpt>
      <trkpt lat="51.23041671329" lon="4.463552522044">
        <ele>13.8</ele>
        <time>2019-07-10T21:08:36Z</time>
      </trkpt>
      <trkpt lat="51.230524923619" lon="4.463906070586">
        <ele>11.4</ele>
        <time>2019-07-10T21:08:54Z</time>
      </trkpt>
      <trkpt lat="51.230549314948" lon="4.463966755542">
        <ele>10.8</ele>
        <time>2019-07-10T21:08:58Z</time>
      </trkpt>
      <trkpt lat="51.230588123145" lon="4.464075468785">
        <ele>10</ele>
        <time>2019-07-10T21:09:12Z</time>
      </trkpt>
      <trkpt lat="51.230607066239" lon="4.464150319152">
        <ele>10.4</ele>
        <time>2019-07-10T21:09:18Z</time>
      </trkpt>
      <trkpt lat="51.230695076189" lon="4.464438740331">
        <ele>7.4</ele>
        <time>2019-07-10T21:09:40Z</time>
      </trkpt>
      <trkpt lat="51.230709995971" lon="4.464517362553">
        <ele>7</ele>
        <time>2019-07-10T21:09:45Z</time>
      </trkpt>
      <trkpt lat="51.230749139444" lon="4.464934781173">
        <ele>10.4</ele>
        <time>2019-07-10T21:10:06Z</time>
      </trkpt>
      <trkpt lat="51.23076456214" lon="4.465045589891">
        <ele>9.8</ele>
        <time>2019-07-10T21:10:11Z</time>
      </trkpt>
      <trkpt lat="51.230786690356" lon="4.46576567892">
        <ele>11.4</ele>
        <time>2019-07-10T21:10:45Z</time>
      </trkpt>
      <trkpt lat="51.230784091967" lon="4.465989810926">
        <ele>10.6</ele>
        <time>2019-07-10T21:10:55Z</time>
      </trkpt>
      <trkpt lat="51.230770848565" lon="4.466139427841">
        <ele>10.2</ele>
        <time>2019-07-10T21:11:01Z</time>
      </trkpt>
      <trkpt lat="51.230774368963" lon="4.466384766054">
        <ele>8.4</ele>
        <time>2019-07-10T21:11:17Z</time>
      </trkpt>
      <trkpt lat="51.230766322339" lon="4.466551565864">
        <ele>6.4</ele>
        <time>2019-07-10T21:11:28Z</time>
      </trkpt>
      <trkpt lat="51.230739500259" lon="4.466856499386">
        <ele>6.2</ele>
        <time>2019-07-10T21:11:41Z</time>
      </trkpt>
      <trkpt lat="51.230741679553" lon="4.466875107204">
        <ele>6.2</ele>
        <time>2019-07-10T21:11:43Z</time>
      </trkpt>
      <trkpt lat="51.230746038141" lon="4.466947107725">
        <ele>6.2</ele>
        <time>2019-07-10T21:11:50Z</time>
      </trkpt>
      <trkpt lat="51.230750480548" lon="4.467154811207">
        <ele>5</ele>
        <time>2019-07-10T21:12:02Z</time>
      </trkpt>
      <trkpt lat="51.230770094194" lon="4.467295543308">
        <ele>4.4</ele>
        <time>2019-07-10T21:12:11Z</time>
      </trkpt>
      <trkpt lat="51.230966230654" lon="4.467225638262">
        <ele>5.2</ele>
        <time>2019-07-10T21:12:29Z</time>
      </trkpt>
      <trkpt lat="51.231033034397" lon="4.467201582209">
        <ele>3.4</ele>
        <time>2019-07-10T21:12:38Z</time>
      </trkpt>
      <trkpt lat="51.231095563371" lon="4.467196301612">
        <ele>1.8</ele>
        <time>2019-07-10T21:12:48Z</time>
      </trkpt>
      <trkpt lat="51.231115009379" lon="4.467189176997">
        <ele>1.8</ele>
        <time>2019-07-10T21:12:50Z</time>
      </trkpt>
      <trkpt lat="51.231565955599" lon="4.46717132355">
        <ele>0</ele>
        <time>2019-07-10T21:13:24Z</time>
      </trkpt>
      <trkpt lat="51.231720517835" lon="4.467192613576">
        <ele>0</ele>
        <time>2019-07-10T21:13:37Z</time>
      </trkpt>
      <trkpt lat="51.231786734845" lon="4.46717299993">
        <ele>0</ele>
        <time>2019-07-10T21:13:42Z</time>
      </trkpt>
      <trkpt lat="51.231968035342" lon="4.466980802963">
        <ele>0</ele>
        <time>2019-07-10T21:14:02Z</time>
      </trkpt>
      <trkpt lat="51.232051602885" lon="4.466926236794">
        <ele>0</ele>
        <time>2019-07-10T21:14:09Z</time>
      </trkpt>
      <trkpt lat="51.232132739677" lon="4.467131258068">
        <ele>0</ele>
        <time>2019-07-10T21:14:17Z</time>
      </trkpt>
      <trkpt lat="51.232229885898" lon="4.467494781071">
        <ele>5</ele>
        <time>2019-07-10T21:14:40Z</time>
      </trkpt>
      <trkpt lat="51.232241285282" lon="4.467523614807">
        <ele>5.4</ele>
        <time>2019-07-10T21:14:42Z</time>
      </trkpt>
      <trkpt lat="51.232302389333" lon="4.467625119616">
        <ele>4.2</ele>
        <time>2019-07-10T21:14:52Z</time>
      </trkpt>
      <trkpt lat="51.232421328494" lon="4.467909601302">
        <ele>2.4</ele>
        <time>2019-07-10T21:15:28Z</time>
      </trkpt>
      <trkpt lat="51.232503052019" lon="4.468052596516">
        <ele>6</ele>
        <time>2019-07-10T21:15:40Z</time>
      </trkpt>
      <trkpt lat="51.232772530104" lon="4.468643101371">
        <ele>9.6</ele>
        <time>2019-07-10T21:16:14Z</time>
      </trkpt>
      <trkpt lat="51.23286255171" lon="4.468803028023">
        <ele>7.6</ele>
        <time>2019-07-10T21:16:27Z</time>
      </trkpt>
      <trkpt lat="51.232973863342" lon="4.469021879432">
        <ele>6.4</ele>
        <time>2019-07-10T21:16:41Z</time>
      </trkpt>
      <trkpt lat="51.233041421456" lon="4.469308791869">
        <ele>3</ele>
        <time>2019-07-10T21:17:02Z</time>
      </trkpt>
      <trkpt lat="51.23307629016" lon="4.469377691087">
        <ele>2.8</ele>
        <time>2019-07-10T21:17:07Z</time>
      </trkpt>
      <trkpt lat="51.233162372273" lon="4.469585059293">
        <ele>3</ele>
        <time>2019-07-10T21:17:23Z</time>
      </trkpt>
      <trkpt lat="51.233251555689" lon="4.469808772204">
        <ele>2.4</ele>
        <time>2019-07-10T21:17:39Z</time>
      </trkpt>
      <trkpt lat="51.233369740479" lon="4.470051176752">
        <ele>1.4</ele>
        <time>2019-07-10T21:17:57Z</time>
      </trkpt>
      <trkpt lat="51.23358590968" lon="4.470482593145">
        <ele>1.6</ele>
        <time>2019-07-10T21:18:30Z</time>
      </trkpt>
      <trkpt lat="51.233758995915" lon="4.470842009017">
        <ele>2.6</ele>
        <time>2019-07-10T21:18:53Z</time>
      </trkpt>
      <trkpt lat="51.233810376962" lon="4.47091048914">
        <ele>2.2</ele>
        <time>2019-07-10T21:18:58Z</time>
      </trkpt>
      <trkpt lat="51.233882796578" lon="4.471040911504">
        <ele>2.2</ele>
        <time>2019-07-10T21:19:12Z</time>
      </trkpt>
      <trkpt lat="51.233964939198" lon="4.471245094588">
        <ele>1.4</ele>
        <time>2019-07-10T21:19:24Z</time>
      </trkpt>
      <trkpt lat="51.234201224959" lon="4.471866109559">
        <ele>6.2</ele>
        <time>2019-07-10T21:19:56Z</time>
      </trkpt>
      <trkpt lat="51.234235004016" lon="4.471913215837">
        <ele>5.2</ele>
        <time>2019-07-10T21:20:01Z</time>
      </trkpt>
      <trkpt lat="51.234392751374" lon="4.472274978641">
        <ele>3.6</ele>
        <time>2019-07-10T21:20:23Z</time>
      </trkpt>
      <trkpt lat="51.234599700485" lon="4.472705975939">
        <ele>5.2</ele>
        <time>2019-07-10T21:20:47Z</time>
      </trkpt>
      <trkpt lat="51.234682765114" lon="4.472988781245">
        <ele>8.4</ele>
        <time>2019-07-10T21:21:07Z</time>
      </trkpt>
      <trkpt lat="51.234729955211" lon="4.473170333199">
        <ele>8.8</ele>
        <time>2019-07-10T21:21:16Z</time>
      </trkpt>
      <trkpt lat="51.234614033534" lon="4.473415587593">
        <ele>7.4</ele>
        <time>2019-07-10T21:21:31Z</time>
      </trkpt>
      <trkpt lat="51.234460644764" lon="4.473749019575">
        <ele>3.6</ele>
        <time>2019-07-10T21:21:58Z</time>
      </trkpt>
      <trkpt lat="51.234075496459" lon="4.474126205075">
        <ele>7.6</ele>
        <time>2019-07-10T21:22:40Z</time>
      </trkpt>
      <trkpt lat="51.233720271537" lon="4.47451386795">
        <ele>7.6</ele>
        <time>2019-07-10T21:23:22Z</time>
      </trkpt>
      <trkpt lat="51.233556824487" lon="4.474732048807">
        <ele>6</ele>
        <time>2019-07-10T21:24:00Z</time>
      </trkpt>
      <trkpt lat="51.233277288122" lon="4.475080232933">
        <ele>6.8</ele>
        <time>2019-07-10T21:24:33Z</time>
      </trkpt>
      <trkpt lat="51.232926337969" lon="4.475535202465">
        <ele>10.2</ele>
        <time>2019-07-10T21:25:15Z</time>
      </trkpt>
      <trkpt lat="51.232759873435" lon="4.475737876807">
        <ele>8.2</ele>
        <time>2019-07-10T21:25:34Z</time>
      </trkpt>
      <trkpt lat="51.232644957586" lon="4.475808200948">
        <ele>9.2</ele>
        <time>2019-07-10T21:25:45Z</time>
      </trkpt>
      <trkpt lat="51.232410515843" lon="4.475521791425">
        <ele>7.6</ele>
        <time>2019-07-10T21:26:17Z</time>
      </trkpt>
      <trkpt lat="51.232366846144" lon="4.475403103721">
        <ele>10.2</ele>
        <time>2019-07-10T21:26:25Z</time>
      </trkpt>
      <trkpt lat="51.23222301274" lon="4.474915528598">
        <ele>9.2</ele>
        <time>2019-07-10T21:26:59Z</time>
      </trkpt>
      <trkpt lat="51.231951774456" lon="4.474353019289">
        <ele>13.4</ele>
        <time>2019-07-10T21:27:38Z</time>
      </trkpt>
      <trkpt lat="51.231649020228" lon="4.473860582664">
        <ele>9.6</ele>
        <time>2019-07-10T21:28:24Z</time>
      </trkpt>
      <trkpt lat="51.231454141053" lon="4.473582722679">
        <ele>13.4</ele>
        <time>2019-07-10T21:28:51Z</time>
      </trkpt>
      <trkpt lat="51.231368645673" lon="4.473424053312">
        <ele>12.8</ele>
        <time>2019-07-10T21:29:04Z</time>
      </trkpt>
      <trkpt lat="51.231183908597" lon="4.472769343103">
        <ele>7</ele>
        <time>2019-07-10T21:29:46Z</time>
      </trkpt>
      <trkpt lat="51.231129090971" lon="4.47272349411">
        <ele>7.2</ele>
        <time>2019-07-10T21:29:52Z</time>
      </trkpt>
      <trkpt lat="51.231045271971" lon="4.472390229766">
        <ele>2</ele>
        <time>2019-07-10T21:30:22Z</time>
      </trkpt>
      <trkpt lat="51.231051893672" lon="4.47221052183">
        <ele>0</ele>
        <time>2019-07-10T21:30:34Z</time>
      </trkpt>
      <trkpt lat="51.230803286518" lon="4.471595877103">
        <ele>0</ele>
        <time>2019-07-10T21:31:12Z</time>
      </trkpt>
      <trkpt lat="51.230780739207" lon="4.471569725575">
        <ele>0</ele>
        <time>2019-07-10T21:31:13Z</time>
      </trkpt>
      <trkpt lat="51.23073522549" lon="4.471506023135">
        <ele>0</ele>
        <time>2019-07-10T21:31:20Z</time>
      </trkpt>
      <trkpt lat="51.23069499237" lon="4.471408709276">
        <ele>0</ele>
        <time>2019-07-10T21:31:25Z</time>
      </trkpt>
      <trkpt lat="51.230587955507" lon="4.471188852039">
        <ele>0</ele>
        <time>2019-07-10T21:31:39Z</time>
      </trkpt>
      <trkpt lat="51.23055501464" lon="4.471126993617">
        <ele>0</ele>
        <time>2019-07-10T21:31:44Z</time>
      </trkpt>
      <trkpt lat="51.230519559203" lon="4.471080222615">
        <ele>0</ele>
        <time>2019-07-10T21:31:51Z</time>
      </trkpt>
      <trkpt lat="51.230477649703" lon="4.470372454979">
        <ele>0</ele>
        <time>2019-07-10T21:32:28Z</time>
      </trkpt>
      <trkpt lat="51.230392070504" lon="4.470115633563">
        <ele>0</ele>
        <time>2019-07-10T21:32:47Z</time>
      </trkpt>
      <trkpt lat="51.230382179862" lon="4.470060899756">
        <ele>0</ele>
        <time>2019-07-10T21:32:50Z</time>
      </trkpt>
      <trkpt lat="51.230347646434" lon="4.46997842186">
        <ele>0</ele>
        <time>2019-07-10T21:32:59Z</time>
      </trkpt>
      <trkpt lat="51.230218229898" lon="4.469770466921">
        <ele>0</ele>
        <time>2019-07-10T21:33:17Z</time>
      </trkpt>
      <trkpt lat="51.23020297484" lon="4.469771053654">
        <ele>0</ele>
        <time>2019-07-10T21:33:19Z</time>
      </trkpt>
      <trkpt lat="51.229781952003" lon="4.470058804281">
        <ele>0</ele>
        <time>2019-07-10T21:33:57Z</time>
      </trkpt>
      <trkpt lat="51.229426727081" lon="4.470170283551">
        <ele>3</ele>
        <time>2019-07-10T21:34:28Z</time>
      </trkpt>
      <trkpt lat="51.229193291166" lon="4.47018964574">
        <ele>0.4</ele>
        <time>2019-07-10T21:34:47Z</time>
      </trkpt>
      <trkpt lat="51.228836138407" lon="4.470162991298">
        <ele>0</ele>
        <time>2019-07-10T21:35:22Z</time>
      </trkpt>
      <trkpt lat="51.228592225117" lon="4.469699891323">
        <ele>4.2</ele>
        <time>2019-07-10T21:36:23Z</time>
      </trkpt>
      <trkpt lat="51.228464484961" lon="4.469462515915">
        <ele>4</ele>
        <time>2019-07-10T21:36:40Z</time>
      </trkpt>
      <trkpt lat="51.228403716186" lon="4.469299068865">
        <ele>5</ele>
        <time>2019-07-10T21:36:55Z</time>
      </trkpt>
      <trkpt lat="51.228344623791" lon="4.469173088908">
        <ele>5.2</ele>
        <time>2019-07-10T21:37:04Z</time>
      </trkpt>
      <trkpt lat="51.228291817821" lon="4.468988938565">
        <ele>5</ele>
        <time>2019-07-10T21:37:14Z</time>
      </trkpt>
      <trkpt lat="51.228456438337" lon="4.468837561451">
        <ele>6.2</ele>
        <time>2019-07-10T21:37:38Z</time>
      </trkpt>
      <trkpt lat="51.228533551817" lon="4.468795651951">
        <ele>8.8</ele>
        <time>2019-07-10T21:37:47Z</time>
      </trkpt>
      <trkpt lat="51.22855341692" lon="4.468701439395">
        <ele>8</ele>
        <time>2019-07-10T21:37:55Z</time>
      </trkpt>
      <trkpt lat="51.228551824359" lon="4.468646286493">
        <ele>6.8</ele>
        <time>2019-07-10T21:37:58Z</time>
      </trkpt>
      <trkpt lat="51.228536988396" lon="4.468432212767">
        <ele>3.6</ele>
        <time>2019-07-10T21:38:09Z</time>
      </trkpt>
      <trkpt lat="51.228541011708" lon="4.468287205897">
        <ele>3.4</ele>
        <time>2019-07-10T21:38:17Z</time>
      </trkpt>
      <trkpt lat="51.228551656721" lon="4.468241356904">
        <ele>4.4</ele>
        <time>2019-07-10T21:38:22Z</time>
      </trkpt>
      <trkpt lat="51.228656765747" lon="4.468160806845">
        <ele>4.4</ele>
        <time>2019-07-10T21:38:32Z</time>
      </trkpt>
      <trkpt lat="51.228744356602" lon="4.468219563964">
        <ele>4.8</ele>
        <time>2019-07-10T21:38:40Z</time>
      </trkpt>
      <trkpt lat="51.229001513294" lon="4.468099367518">
        <ele>2.8</ele>
        <time>2019-07-10T21:39:04Z</time>
      </trkpt>
      <trkpt lat="51.229022635682" lon="4.468000377279">
        <ele>1.4</ele>
        <time>2019-07-10T21:39:23Z</time>
      </trkpt>
      <trkpt lat="51.229035208532" lon="4.467945475834">
        <ele>0.6</ele>
        <time>2019-07-10T21:39:28Z</time>
      </trkpt>
      <trkpt lat="51.229034454161" lon="4.467888143638">
        <ele>0</ele>
        <time>2019-07-10T21:39:35Z</time>
      </trkpt>
      <trkpt lat="51.229061276241" lon="4.467728300805">
        <ele>0</ele>
        <time>2019-07-10T21:39:52Z</time>
      </trkpt>
      <trkpt lat="51.229181975601" lon="4.467723523122">
        <ele>1.8</ele>
        <time>2019-07-10T21:40:04Z</time>
      </trkpt>
      <trkpt lat="51.229261016918" lon="4.467618246458">
        <ele>3.4</ele>
        <time>2019-07-10T21:40:12Z</time>
      </trkpt>
      <trkpt lat="51.229675082778" lon="4.467611457119">
        <ele>0</ele>
        <time>2019-07-10T21:40:48Z</time>
      </trkpt>
      <trkpt lat="51.229969538925" lon="4.467483549325">
        <ele>0</ele>
        <time>2019-07-10T21:41:15Z</time>
      </trkpt>
      <trkpt lat="51.23041168415" lon="4.467401658162">
        <ele>4.2</ele>
        <time>2019-07-10T21:41:45Z</time>
      </trkpt>
      <trkpt lat="51.230643276047" lon="4.467304679579">
        <ele>4.4</ele>
        <time>2019-07-10T21:42:08Z</time>
      </trkpt>
      <trkpt lat="51.230667080643" lon="4.467006703034">
        <ele>5.4</ele>
        <time>2019-07-10T21:42:30Z</time>
      </trkpt>
      <trkpt lat="51.230672193602" lon="4.466285105263">
        <ele>0</ele>
        <time>2019-07-10T21:43:11Z</time>
      </trkpt>
      <trkpt lat="51.230695746741" lon="4.465559903275">
        <ele>6</ele>
        <time>2019-07-10T21:43:57Z</time>
      </trkpt>
      <trkpt lat="51.230680240226" lon="4.464833444002">
        <ele>0</ele>
        <time>2019-07-10T21:44:41Z</time>
      </trkpt>
      <trkpt lat="51.230659872209" lon="4.464777704367">
        <ele>0</ele>
        <time>2019-07-10T21:44:45Z</time>
      </trkpt>
      <trkpt lat="51.230640090925" lon="4.464712828461">
        <ele>0</ele>
        <time>2019-07-10T21:44:54Z</time>
      </trkpt>
      <trkpt lat="51.230542190333" lon="4.464388784207">
        <ele>0</ele>
        <time>2019-07-10T21:45:18Z</time>
      </trkpt>
      <trkpt lat="51.230513859511" lon="4.46426448063">
        <ele>0</ele>
        <time>2019-07-10T21:45:34Z</time>
      </trkpt>
      <trkpt lat="51.230508746552" lon="4.464239083473">
        <ele>0</ele>
        <time>2019-07-10T21:45:36Z</time>
      </trkpt>
      <trkpt lat="51.230331134091" lon="4.463813702048">
        <ele>0</ele>
        <time>2019-07-10T21:46:17Z</time>
      </trkpt>
      <trkpt lat="51.23017866733" lon="4.464057196243">
        <ele>0</ele>
        <time>2019-07-10T21:46:40Z</time>
      </trkpt>
      <trkpt lat="51.230166597394" lon="4.464099776295">
        <ele>0.2</ele>
        <time>2019-07-10T21:46:43Z</time>
      </trkpt>
      <trkpt lat="51.230022512533" lon="4.464274371272">
        <ele>4.6</ele>
        <time>2019-07-10T21:47:14Z</time>
      </trkpt>
      <trkpt lat="51.229956463161" lon="4.464276550566">
        <ele>8</ele>
        <time>2019-07-10T21:47:21Z</time>
      </trkpt>
      <trkpt lat="51.229709448568" lon="4.464324327396">
        <ele>14.2</ele>
        <time>2019-07-10T21:47:43Z</time>
      </trkpt>
      <trkpt lat="51.229261436013" lon="4.464369924932">
        <ele>8.4</ele>
        <time>2019-07-10T21:48:35Z</time>
      </trkpt>
      <trkpt lat="51.229220197065" lon="4.464380905221">
        <ele>8</ele>
        <time>2019-07-10T21:48:38Z</time>
      </trkpt>
      <trkpt lat="51.228807723766" lon="4.464392639881">
        <ele>7.8</ele>
        <time>2019-07-10T21:49:24Z</time>
      </trkpt>
      <trkpt lat="51.228636733006" lon="4.46430136099">
        <ele>2.2</ele>
        <time>2019-07-10T21:49:44Z</time>
      </trkpt>
      <trkpt lat="51.228509914859" lon="4.464042779375">
        <ele>2.6</ele>
        <time>2019-07-10T21:50:27Z</time>
      </trkpt>
      <trkpt lat="51.228496755276" lon="4.463882936542">
        <ele>3</ele>
        <time>2019-07-10T21:50:37Z</time>
      </trkpt>
      <trkpt lat="51.228485104435" lon="4.463756872766">
        <ele>0.8</ele>
        <time>2019-07-10T21:50:44Z</time>
      </trkpt>
      <trkpt lat="51.228241023507" lon="4.463203918823">
        <ele>0</ele>
        <time>2019-07-10T21:51:38Z</time>
      </trkpt>
      <trkpt lat="51.227993422181" lon="4.463169888309">
        <ele>0</ele>
        <time>2019-07-10T21:52:08Z</time>
      </trkpt>
      <trkpt lat="51.22781329515" lon="4.462740483572">
        <ele>5.6</ele>
        <time>2019-07-10T21:52:37Z</time>
      </trkpt>
      <trkpt lat="51.22781664791" lon="4.46209524491">
        <ele>4</ele>
        <time>2019-07-10T21:53:18Z</time>
      </trkpt>
      <trkpt lat="51.227816564091" lon="4.462015868317">
        <ele>3</ele>
        <time>2019-07-10T21:53:23Z</time>
      </trkpt>
      <trkpt lat="51.227811199675" lon="4.46197286917">
        <ele>1.6</ele>
        <time>2019-07-10T21:53:26Z</time>
      </trkpt>
      <trkpt lat="51.227806254354" lon="4.461854600561">
        <ele>0.6</ele>
        <time>2019-07-10T21:53:34Z</time>
      </trkpt>
      <trkpt lat="51.227807260182" lon="4.461707414397">
        <ele>0.8</ele>
        <time>2019-07-10T21:53:44Z</time>
      </trkpt>
      <trkpt lat="51.227820419765" lon="4.461596186584">
        <ele>2.4</ele>
        <time>2019-07-10T21:53:56Z</time>
      </trkpt>
      <trkpt lat="51.227836596832" lon="4.461196118497">
        <ele>7.2</ele>
        <time>2019-07-10T21:54:21Z</time>
      </trkpt>
      <trkpt lat="51.227807679277" lon="4.460711979953">
        <ele>26.8</ele>
        <time>2019-07-10T21:55:29Z</time>
      </trkpt>
      <trkpt lat="51.227974479087" lon="4.460592956973">
        <ele>17.8</ele>
        <time>2019-07-10T21:55:43Z</time>
      </trkpt>
      <trkpt lat="51.228144883114" lon="4.460359604877">
        <ele>19</ele>
        <time>2019-07-10T21:56:20Z</time>
      </trkpt>
      <trkpt lat="51.22817539323" lon="4.460321886327">
        <ele>19</ele>
        <time>2019-07-10T21:56:23Z</time>
      </trkpt>
      <trkpt lat="51.228386700929" lon="4.45970556522">
        <ele>9</ele>
        <time>2019-07-10T21:56:59Z</time>
      </trkpt>
      <trkpt lat="51.228589794366" lon="4.459076168349">
        <ele>3.2</ele>
        <time>2019-07-10T21:57:46Z</time>
      </trkpt>
      <trkpt lat="51.228583843217" lon="4.459048005165">
        <ele>2.8</ele>
        <time>2019-07-10T21:57:47Z</time>
      </trkpt>
      <trkpt lat="51.228566325046" lon="4.45888246264">
        <ele>2.4</ele>
        <time>2019-07-10T21:57:59Z</time>
      </trkpt>
      <trkpt lat="51.228556266766" lon="4.458804930065">
        <ele>2.2</ele>
        <time>2019-07-10T21:58:04Z</time>
      </trkpt>
      <trkpt lat="51.22855425511" lon="4.458707783844">
        <ele>2</ele>
        <time>2019-07-10T21:58:10Z</time>
      </trkpt>
      <trkpt lat="51.228543274821" lon="4.458584989009">
        <ele>0.2</ele>
        <time>2019-07-10T21:58:18Z</time>
      </trkpt>
      <trkpt lat="51.228574036394" lon="4.458268823741">
        <ele>0</ele>
        <time>2019-07-10T21:58:40Z</time>
      </trkpt>
      <trkpt lat="51.228951892446" lon="4.458149465485">
        <ele>16.6</ele>
        <time>2019-07-10T21:59:27Z</time>
      </trkpt>
      <trkpt lat="51.229135036961" lon="4.458108561813">
        <ele>14.2</ele>
        <time>2019-07-10T21:59:43Z</time>
      </trkpt>
      <trkpt lat="51.22931114068" lon="4.458013594886">
        <ele>12</ele>
        <time>2019-07-10T22:00:07Z</time>
      </trkpt>
      <trkpt lat="51.229595119452" lon="4.457938493062">
        <ele>19.6</ele>
        <time>2019-07-10T22:00:43Z</time>
      </trkpt>
      <trkpt lat="51.229685392515" lon="4.457915526656">
        <ele>22.8</ele>
        <time>2019-07-10T22:00:50Z</time>
      </trkpt>
      <trkpt lat="51.229714980622" lon="4.457915107561">
        <ele>22.2</ele>
        <time>2019-07-10T22:00:52Z</time>
      </trkpt>
      <trkpt lat="51.229766110212" lon="4.457964896047">
        <ele>19.4</ele>
        <time>2019-07-10T22:00:56Z</time>
      </trkpt>
      <trkpt lat="51.229703665057" lon="4.458023234071">
        <ele>17</ele>
        <time>2019-07-10T22:01:08Z</time>
      </trkpt>
      <trkpt lat="51.229690673112" lon="4.458030945419">
        <ele>16.4</ele>
        <time>2019-07-10T22:01:09Z</time>
      </trkpt>
    </trkseg>
  </trk>
</gpx>